createdAt,value
2018-07-02T00:00:10.832Z,81.40
2018-07-02T00:05:45.454Z,81.70
2018-07-02T00:08:16.012Z,81.80
2018-07-02T00:10:48.997Z,82.30
2018-07-02T00:13:20.748Z,82.70
2018-07-02T00:16:00.793Z,82.40
2018-07-02T00:18:42.024Z,82.70
2018-07-02T00:21:24.867Z,82.80
2018-07-02T00:23:54.538Z,84.10
2018-07-02T00:26:23.350Z,83.10
2018-07-02T00:31:22.468Z,83.80
2018-07-02T00:33:51.102Z,84.50
2018-07-02T00:36:20.789Z,84.10
2018-07-02T00:39:06.291Z,85.00
2018-07-02T00:44:50.972Z,85.20
2018-07-02T00:47:33.452Z,86.20
2018-07-02T00:50:25.206Z,85.70
2018-07-02T00:52:54.188Z,86.60
2018-07-02T00:55:27.546Z,86.60
2018-07-02T01:00:54.360Z,87.00
2018-07-02T01:03:24.030Z,87.10
2018-07-02T01:06:03.807Z,87.60
2018-07-02T01:08:34.310Z,87.90
2018-07-02T01:11:23.516Z,88.60
2018-07-02T01:13:57.766Z,88.40
2018-07-02T01:16:33.548Z,89.40
2018-07-02T01:19:12.403Z,89.50
2018-07-02T01:21:52.986Z,89.60
2018-07-02T01:24:23.544Z,89.10
2018-07-02T01:26:59.610Z,90.20
2018-07-02T01:29:39.911Z,89.10
2018-07-02T01:32:15.118Z,89.30
2018-07-02T01:34:50.531Z,89.50
2018-07-02T01:37:25.056Z,89.80
2018-07-02T01:39:53.834Z,90.00
2018-07-02T01:42:22.519Z,90.70
2018-07-02T01:44:52.048Z,90.60
2018-07-02T01:47:22.595Z,91.00
2018-07-02T01:49:51.320Z,90.60
2018-07-02T01:52:20.834Z,90.70
2018-07-02T01:57:43.125Z,90.70
2018-07-02T02:00:21.333Z,91.00
2018-07-02T02:02:51.866Z,90.90
2018-07-02T02:05:20.553Z,90.90
2018-07-02T02:07:50.157Z,90.90
2018-07-02T02:10:18.929Z,91.10
2018-07-02T02:12:48.437Z,91.00
2018-07-02T02:15:18.092Z,91.30
2018-07-02T02:17:46.757Z,91.30
2018-07-02T02:20:16.349Z,91.50
2018-07-02T02:22:48.446Z,91.70
2018-07-02T02:25:20.501Z,92.30
2018-07-02T02:28:00.834Z,92.70
2018-07-02T02:30:31.423Z,92.30
2018-07-02T02:33:00.110Z,92.60
2018-07-02T02:35:33.744Z,93.00
2018-07-02T02:38:03.364Z,92.90
2018-07-02T02:40:33.817Z,93.10
2018-07-02T02:43:02.543Z,93.20
2018-07-02T02:45:31.209Z,93.40
2018-07-02T02:48:04.927Z,93.60
2018-07-02T02:50:40.824Z,93.80
2018-07-02T02:53:25.798Z,93.90
2018-07-02T02:55:57.885Z,94.10
2018-07-02T02:58:36.104Z,94.30
2018-07-02T03:01:08.578Z,94.50
2018-07-02T03:03:37.121Z,94.70
2018-07-02T03:06:18.114Z,94.80
2018-07-02T03:08:50.185Z,95.60
2018-07-02T03:11:19.485Z,95.60
2018-07-02T03:13:50.248Z,95.50
2018-07-02T03:16:20.451Z,95.60
2018-07-02T03:19:01.002Z,95.80
2018-07-02T03:21:29.614Z,96.10
2018-07-02T03:24:01.966Z,96.30
2018-07-02T03:26:42.638Z,96.40
2018-07-02T03:29:12.257Z,96.60
2018-07-02T03:31:47.719Z,96.80
2018-07-02T03:34:19.185Z,97.00
2018-07-02T03:36:54.600Z,97.20
2018-07-02T03:39:26.998Z,97.70
2018-07-02T03:42:14.698Z,97.80
2018-07-02T03:44:48.914Z,98.10
2018-07-02T03:47:17.722Z,98.10
2018-07-02T03:49:47.190Z,98.40
2018-07-02T03:52:17.000Z,98.40
2018-07-02T03:57:21.642Z,98.70
2018-07-02T04:02:32.144Z,99.00
2018-07-02T04:05:02.808Z,98.90
2018-07-02T04:07:31.356Z,99.10
2018-07-02T04:10:00.128Z,99.60
2018-07-02T04:12:28.824Z,99.30
2018-07-02T04:17:47.022Z,99.40
2018-07-02T04:20:24.120Z,99.50
2018-07-02T04:22:58.270Z,99.50
2018-07-02T04:25:37.345Z,99.80
2018-07-02T04:28:07.974Z,99.90
2018-07-02T04:33:39.071Z,99.90
2018-07-02T04:36:13.880Z,99.90
2018-07-02T04:38:43.068Z,99.90
2018-07-02T04:41:12.502Z,99.90
2018-07-02T04:43:59.310Z,99.90
2018-07-02T04:46:29.991Z,99.80
2018-07-02T04:48:59.531Z,99.60
2018-07-02T04:51:32.510Z,99.30
2018-07-02T04:54:07.041Z,99.60
2018-07-02T04:56:35.704Z,99.30
2018-07-02T04:59:06.330Z,99.30
2018-07-02T05:01:34.932Z,99.10
2018-07-02T05:04:07.922Z,99.10
2018-07-02T05:06:36.812Z,98.80
2018-07-02T05:09:07.337Z,99.00
2018-07-02T05:11:37.398Z,98.80
2018-07-02T05:14:06.111Z,98.90
2018-07-02T05:16:34.729Z,98.80
2018-07-02T05:19:03.364Z,98.70
2018-07-02T05:21:37.866Z,98.80
2018-07-02T05:24:11.115Z,99.10
2018-07-02T05:26:40.766Z,98.50
2018-07-02T05:29:12.818Z,98.50
2018-07-02T05:31:46.837Z,98.50
2018-07-02T05:34:15.589Z,98.50
2018-07-02T05:36:45.400Z,98.40
2018-07-02T05:39:15.032Z,98.10
2018-07-02T05:41:49.178Z,98.20
2018-07-02T05:44:17.878Z,97.60
2018-07-02T05:46:46.564Z,97.60
2018-07-02T05:49:15.248Z,97.30
2018-07-02T05:51:43.874Z,97.00
2018-07-02T05:54:14.027Z,96.50
2018-07-02T05:56:43.844Z,96.60
2018-07-02T06:01:40.530Z,96.00
2018-07-02T06:04:09.284Z,95.80
2018-07-02T06:06:37.910Z,95.10
2018-07-02T06:09:12.414Z,94.10
2018-07-02T06:11:40.970Z,93.50
2018-07-02T06:14:10.354Z,93.90
2018-07-02T06:16:43.108Z,93.70
2018-07-02T06:19:18.054Z,94.00
2018-07-02T06:21:46.822Z,92.60
2018-07-02T06:24:15.480Z,92.60
2018-07-02T06:26:44.099Z,91.90
2018-07-02T06:29:12.762Z,91.60
2018-07-02T06:31:41.548Z,90.90
2018-07-02T06:34:10.266Z,91.20
2018-07-02T06:36:38.924Z,90.20
2018-07-02T06:39:09.896Z,90.50
2018-07-02T06:41:38.806Z,90.30
2018-07-02T06:44:07.441Z,90.40
2018-07-02T06:46:45.521Z,90.20
2018-07-02T06:51:47.302Z,88.80
2018-07-02T06:54:23.928Z,88.50
2018-07-02T06:56:54.800Z,87.70
2018-07-02T06:59:29.028Z,88.30
2018-07-02T07:02:09.301Z,89.30
2018-07-02T07:07:30.928Z,88.20
2018-07-02T07:09:59.602Z,86.20
2018-07-02T07:12:28.306Z,87.40
2018-07-02T07:14:56.944Z,86.90
2018-07-02T07:17:25.638Z,88.90
2018-07-02T07:19:54.327Z,86.70
2018-07-02T07:22:24.108Z,86.90
2018-07-02T07:24:59.696Z,88.00
2018-07-02T07:27:34.041Z,87.60
2018-07-02T07:30:18.528Z,85.10
2018-07-02T07:32:51.578Z,86.30
2018-07-02T07:35:25.710Z,86.00
2018-07-02T07:38:08.915Z,85.20
2018-07-02T07:40:44.956Z,84.50
2018-07-02T07:43:20.998Z,86.30
2018-07-02T07:45:59.490Z,84.60
2018-07-02T07:48:29.508Z,83.80
2018-07-02T07:51:06.112Z,84.50
2018-07-02T07:53:39.450Z,84.40
2018-07-02T07:56:09.948Z,83.90
2018-07-02T07:58:45.352Z,83.50
2018-07-02T08:01:20.934Z,83.60
2018-07-02T08:03:53.204Z,83.30
2018-07-02T08:06:21.924Z,83.50
2018-07-02T08:08:51.502Z,83.00
2018-07-02T08:11:21.984Z,83.40
2018-07-02T08:13:50.384Z,83.30
2018-07-02T08:16:26.430Z,82.40
2018-07-02T08:19:13.639Z,81.10
2018-07-02T08:21:53.958Z,82.30
2018-07-02T08:24:23.530Z,82.40
2018-07-02T08:27:08.224Z,82.30
2018-07-02T08:29:50.086Z,81.20
2018-07-02T08:32:24.061Z,81.60
2018-07-02T08:34:54.570Z,81.80
2018-07-02T08:37:24.184Z,80.50
2018-07-02T08:39:54.735Z,80.60
2018-07-02T08:42:23.393Z,79.90
2018-07-02T08:45:09.472Z,79.90
2018-07-02T08:47:45.660Z,81.50
2018-07-02T08:50:14.391Z,81.70
2018-07-02T08:52:43.318Z,78.60
2018-07-02T08:55:24.312Z,78.10
2018-07-02T08:57:53.233Z,78.40
2018-07-02T09:00:21.728Z,76.70
2018-07-02T09:02:52.264Z,76.60
2018-07-02T09:05:20.972Z,75.50
2018-07-02T09:07:51.020Z,74.30
2018-07-02T09:10:20.750Z,74.60
2018-07-02T09:13:00.821Z,73.40
2018-07-02T09:15:48.970Z,73.30
2018-07-02T09:18:23.366Z,72.20
2018-07-02T09:20:56.401Z,72.20
2018-07-02T09:23:25.108Z,71.90
2018-07-02T09:25:54.139Z,71.50
2018-07-02T09:28:23.755Z,70.20
2018-07-02T09:31:02.503Z,70.30
2018-07-02T09:33:39.210Z,71.90
2018-07-02T09:36:09.743Z,69.80
2018-07-02T09:38:42.053Z,70.50
2018-07-02T09:41:18.113Z,70.50
2018-07-02T09:43:55.115Z,70.00
2018-07-02T09:46:24.813Z,68.70
2018-07-02T09:48:57.101Z,70.70
2018-07-02T09:51:29.745Z,69.70
2018-07-02T09:54:04.881Z,69.60
2018-07-02T09:56:39.455Z,66.80
2018-07-02T09:59:11.491Z,68.90
2018-07-02T10:01:45.688Z,67.90
2018-07-02T10:04:14.481Z,67.20
2018-07-02T10:06:43.983Z,68.50
2018-07-02T10:09:22.809Z,68.00
2018-07-02T10:11:52.483Z,68.80
2018-07-02T10:14:22.047Z,69.50
2018-07-02T10:16:50.789Z,66.30
2018-07-02T10:19:23.450Z,66.60
2018-07-02T10:22:06.190Z,63.90
2018-07-02T10:24:47.486Z,67.30
2018-07-02T10:27:21.463Z,64.30
2018-07-02T10:29:55.303Z,60.90
2018-07-02T10:32:30.125Z,60.60
2018-07-02T10:35:11.411Z,63.30
2018-07-02T10:37:51.490Z,62.70
2018-07-02T10:40:28.122Z,62.30
2018-07-02T10:42:56.544Z,63.60
2018-07-02T10:45:38.088Z,62.10
2018-07-02T10:51:00.247Z,58.50
2018-07-02T10:53:28.734Z,61.10
2018-07-02T10:56:03.522Z,59.40
2018-07-02T10:58:33.649Z,60.70
2018-07-02T11:01:03.495Z,59.90
2018-07-02T11:03:38.294Z,59.80
2018-07-02T11:06:06.987Z,61.20
2018-07-02T11:08:36.615Z,56.30
2018-07-02T11:11:05.287Z,57.80
2018-07-02T11:13:34.952Z,58.50
2018-07-02T11:16:03.556Z,59.60
2018-07-02T11:21:26.094Z,56.60
2018-07-02T11:23:54.454Z,56.80
2018-07-02T11:26:24.064Z,57.70
2018-07-02T11:28:53.964Z,58.40
2018-07-02T11:31:22.760Z,57.70
2018-07-02T11:33:51.401Z,56.20
2018-07-02T11:36:21.934Z,54.60
2018-07-02T11:38:57.992Z,54.00
2018-07-02T11:41:27.613Z,55.20
2018-07-02T11:43:58.127Z,57.20
2018-07-02T11:46:26.807Z,56.60
2018-07-02T11:48:55.435Z,56.40
2018-07-02T11:51:25.128Z,57.60
2018-07-02T11:53:53.789Z,56.30
2018-07-02T11:56:22.493Z,55.70
2018-07-02T11:58:51.205Z,56.10
2018-07-02T12:01:19.806Z,55.80
2018-07-02T12:03:50.357Z,55.00
2018-07-02T12:06:18.906Z,54.10
2018-07-02T12:08:47.444Z,55.10
2018-07-02T12:11:20.710Z,56.10
2018-07-02T12:13:50.392Z,57.60
2018-07-02T12:16:19.104Z,54.80
2018-07-02T12:19:00.921Z,54.80
2018-07-02T12:21:36.488Z,54.80
2018-07-02T12:24:05.118Z,54.90
2018-07-02T12:26:41.798Z,55.80
2018-07-02T12:29:10.502Z,55.30
2018-07-02T12:31:51.747Z,55.30
2018-07-02T12:34:21.408Z,55.30
2018-07-02T12:36:50.030Z,54.70
2018-07-02T12:39:24.819Z,55.60
2018-07-02T12:42:15.958Z,54.10
2018-07-02T12:44:50.157Z,53.80
2018-07-02T12:47:18.922Z,54.50
2018-07-02T12:49:47.546Z,53.20
2018-07-02T12:52:17.206Z,53.80
2018-07-02T12:54:45.870Z,52.80
2018-07-02T12:57:16.354Z,53.30
2018-07-02T12:59:45.043Z,54.40
2018-07-02T13:02:13.509Z,54.10
2018-07-02T13:04:42.165Z,53.60
2018-07-02T13:07:14.986Z,53.00
2018-07-02T13:10:06.524Z,53.20
2018-07-02T13:12:45.304Z,53.40
2018-07-02T13:15:15.478Z,52.40
2018-07-02T13:17:50.686Z,51.90
2018-07-02T13:20:19.258Z,51.90
2018-07-02T13:22:47.794Z,52.10
2018-07-02T13:25:18.404Z,52.20
2018-07-02T13:27:48.944Z,53.90
2018-07-02T13:30:25.657Z,52.20
2018-07-02T13:32:54.274Z,52.50
2018-07-02T13:35:29.148Z,52.50
2018-07-02T13:38:07.585Z,53.00
2018-07-02T13:40:56.877Z,53.80
2018-07-02T13:43:39.172Z,53.50
2018-07-02T13:46:15.489Z,52.50
2018-07-02T13:51:12.552Z,50.70
2018-07-02T13:56:10.713Z,51.70
2018-07-02T13:58:40.955Z,51.50
2018-07-02T14:01:11.012Z,51.50
2018-07-02T14:03:42.777Z,50.20
2018-07-02T14:06:23.407Z,51.90
2018-07-02T14:08:52.783Z,51.70
2018-07-02T14:11:22.299Z,53.10
2018-07-02T14:14:03.222Z,52.00
2018-07-02T14:16:31.933Z,50.50
2018-07-02T14:19:08.388Z,51.80
2018-07-02T14:21:43.878Z,51.30
2018-07-02T14:24:16.156Z,51.90
2018-07-02T14:26:44.814Z,50.70
2018-07-02T14:29:13.589Z,49.80
2018-07-02T14:31:42.312Z,50.70
2018-07-02T14:34:12.145Z,51.00
2018-07-02T14:36:53.708Z,52.00
2018-07-02T14:39:24.612Z,50.70
2018-07-02T14:41:56.186Z,50.60
2018-07-02T14:44:28.121Z,50.00
2018-07-02T14:46:57.651Z,50.60
2018-07-02T14:49:26.353Z,49.60
2018-07-02T14:51:55.118Z,49.30
2018-07-02T14:54:25.760Z,49.00
2018-07-02T14:56:54.335Z,49.50
2018-07-02T14:59:23.860Z,49.90
2018-07-02T15:01:52.631Z,50.50
2018-07-02T15:04:21.233Z,49.80
2018-07-02T15:06:49.968Z,50.10
2018-07-02T15:09:21.750Z,51.70
2018-07-02T15:11:50.347Z,49.90
2018-07-02T15:14:28.546Z,51.20
2018-07-02T15:16:57.361Z,50.70
2018-07-02T15:19:28.018Z,50.60
2018-07-02T15:22:03.218Z,50.10
2018-07-02T15:24:33.447Z,51.00
2018-07-02T15:27:02.721Z,49.70
2018-07-02T15:29:31.661Z,51.10
2018-07-02T15:32:00.196Z,50.50
2018-07-02T15:34:28.991Z,51.00
2018-07-02T15:37:04.675Z,50.60
2018-07-02T15:39:37.946Z,51.10
2018-07-02T15:42:07.628Z,51.70
2018-07-02T15:44:37.292Z,51.90
2018-07-02T15:47:09.413Z,52.30
2018-07-02T15:49:38.150Z,52.40
2018-07-02T15:52:08.789Z,51.80
2018-07-02T15:54:39.223Z,52.80
2018-07-02T15:57:13.381Z,52.10
2018-07-02T15:59:42.027Z,52.50
2018-07-02T16:02:15.494Z,52.10
2018-07-02T16:04:45.185Z,51.10
2018-07-02T16:09:44.172Z,51.60
2018-07-02T16:12:14.573Z,51.70
2018-07-02T16:14:43.359Z,52.70
2018-07-02T16:17:11.979Z,51.10
2018-07-02T16:19:40.630Z,51.70
2018-07-02T16:22:10.460Z,50.80
2018-07-02T16:24:40.548Z,50.60
2018-07-02T16:27:14.074Z,52.60
2018-07-02T16:29:52.631Z,50.70
2018-07-02T16:32:21.557Z,51.40
2018-07-02T16:34:54.189Z,51.70
2018-07-02T16:37:23.441Z,51.80
2018-07-02T16:39:52.741Z,52.20
2018-07-02T16:42:25.929Z,51.40
2018-07-02T16:45:04.290Z,52.50
2018-07-02T16:47:34.267Z,52.10
2018-07-02T16:50:04.213Z,52.30
2018-07-02T16:52:35.811Z,51.50
2018-07-02T16:55:08.154Z,51.30
2018-07-02T16:57:39.326Z,51.50
2018-07-02T17:00:08.705Z,52.40
2018-07-02T17:02:50.713Z,52.70
2018-07-02T17:05:20.950Z,53.50
2018-07-02T17:07:49.785Z,53.60
2018-07-02T17:10:18.923Z,53.40
2018-07-02T17:12:49.807Z,52.70
2018-07-02T17:15:32.946Z,52.90
2018-07-02T17:18:09.635Z,53.20
2018-07-02T17:20:42.315Z,54.20
2018-07-02T17:23:11.519Z,53.80
2018-07-02T17:25:41.487Z,54.20
2018-07-02T17:28:11.364Z,54.70
2018-07-02T17:30:40.092Z,53.80
2018-07-02T17:33:10.996Z,53.80
2018-07-02T17:35:41.714Z,54.10
2018-07-02T17:38:10.544Z,54.40
2018-07-02T17:40:43.411Z,54.60
2018-07-02T17:43:15.904Z,54.20
2018-07-02T17:46:06.444Z,52.80
2018-07-02T17:48:36.325Z,53.80
2018-07-02T17:51:08.333Z,54.90
2018-07-02T17:53:49.594Z,53.90
2018-07-02T17:56:18.628Z,55.10
2018-07-02T17:58:54.256Z,55.70
2018-07-02T18:01:39.484Z,55.90
2018-07-02T18:06:39.771Z,55.80
2018-07-02T18:09:10.118Z,55.70
2018-07-02T18:11:47.049Z,56.00
2018-07-02T18:14:15.683Z,55.90
2018-07-02T18:16:44.315Z,56.00
2018-07-02T18:19:13.863Z,56.50
2018-07-02T18:21:43.475Z,56.00
2018-07-02T18:24:13.208Z,56.20
2018-07-02T18:26:47.864Z,56.70
2018-07-02T18:29:18.511Z,56.50
2018-07-02T18:31:48.107Z,56.10
2018-07-02T18:34:16.740Z,56.70
2018-07-02T18:36:48.592Z,56.30
2018-07-02T18:39:17.659Z,56.80
2018-07-02T18:41:47.685Z,56.20
2018-07-02T18:44:17.395Z,56.90
2018-07-02T18:46:52.393Z,56.70
2018-07-02T18:49:23.557Z,56.90
2018-07-02T18:51:53.248Z,57.70
2018-07-02T18:54:21.982Z,57.90
2018-07-02T18:57:03.679Z,58.00
2018-07-02T18:59:32.906Z,58.10
2018-07-02T19:02:02.546Z,58.30
2018-07-02T19:04:31.119Z,58.40
2018-07-02T19:07:00.793Z,58.80
2018-07-02T19:09:29.790Z,59.10
2018-07-02T19:12:03.024Z,59.50
2018-07-02T19:14:35.459Z,60.30
2018-07-02T19:17:05.451Z,60.60
2018-07-02T19:19:33.986Z,61.20
2018-07-02T19:22:02.725Z,60.70
2018-07-02T19:24:31.429Z,61.50
2018-07-02T19:27:03.148Z,61.50
2018-07-02T19:29:31.865Z,62.40
2018-07-02T19:32:08.126Z,61.70
2018-07-02T19:34:37.943Z,62.90
2018-07-02T19:37:06.955Z,63.10
2018-07-02T19:39:36.896Z,63.00
2018-07-02T19:42:07.581Z,64.30
2018-07-02T19:44:39.381Z,64.80
2018-07-02T19:47:18.054Z,65.20
2018-07-02T19:49:58.339Z,65.60
2018-07-02T19:52:27.193Z,65.90
2018-07-02T19:54:59.541Z,66.30
2018-07-02T19:57:32.296Z,67.10
2018-07-02T20:00:04.585Z,69.00
2018-07-02T20:02:35.216Z,69.70
2018-07-02T20:05:13.627Z,68.90
2018-07-02T20:07:42.449Z,70.30
2018-07-02T20:10:11.094Z,69.00
2018-07-02T20:12:39.976Z,69.20
2018-07-02T20:15:09.013Z,69.80
2018-07-02T20:17:37.699Z,70.80
2018-07-02T20:20:08.795Z,71.10
2018-07-02T20:22:41.083Z,71.80
2018-07-02T20:25:10.919Z,72.10
2018-07-02T20:27:41.079Z,72.40
2018-07-02T20:30:10.399Z,72.00
2018-07-02T20:32:39.328Z,72.20
2018-07-02T20:35:08.086Z,73.30
2018-07-02T20:37:37.627Z,72.60
2018-07-02T20:40:16.131Z,72.40
2018-07-02T20:45:40.052Z,72.00
2018-07-02T20:48:10.908Z,72.30
2018-07-02T20:50:51.721Z,72.00
2018-07-02T20:53:20.551Z,72.30
2018-07-02T20:56:07.209Z,72.20
2018-07-02T20:58:39.113Z,71.60
2018-07-02T21:01:09.894Z,72.50
2018-07-02T21:03:38.635Z,70.90
2018-07-02T21:06:08.237Z,71.00
2018-07-02T21:08:37.433Z,71.70
2018-07-02T21:11:07.082Z,71.50
2018-07-02T21:13:36.022Z,70.90
2018-07-02T21:16:04.709Z,70.60
2018-07-02T21:18:33.495Z,70.40
2018-07-02T21:21:02.127Z,70.70
2018-07-02T21:23:30.971Z,70.00
2018-07-02T21:28:53.269Z,69.30
2018-07-02T21:31:23.815Z,69.10
2018-07-02T21:33:52.460Z,69.60
2018-07-02T21:36:38.962Z,68.10
2018-07-02T21:39:12.456Z,68.80
2018-07-02T21:41:48.907Z,69.40
2018-07-02T21:44:30.848Z,68.30
2018-07-02T21:47:02.557Z,68.50
2018-07-02T21:49:32.231Z,67.90
2018-07-02T21:52:13.156Z,68.60
2018-07-02T21:54:46.295Z,67.70
2018-07-02T21:57:15.771Z,68.40
2018-07-02T21:59:50.981Z,68.20
2018-07-02T22:02:42.029Z,68.80
2018-07-02T22:05:11.683Z,68.20
2018-07-02T22:07:40.474Z,68.80
2018-07-02T22:10:11.161Z,69.00
2018-07-02T22:12:39.950Z,69.20
2018-07-02T22:15:08.727Z,69.30
2018-07-02T22:17:41.908Z,69.50
2018-07-02T22:22:49.627Z,70.50
2018-07-02T22:25:23.051Z,71.30
2018-07-02T22:30:32.090Z,72.50
2018-07-02T22:33:08.380Z,71.20
2018-07-02T22:35:40.411Z,71.10
2018-07-02T22:38:15.571Z,71.20
2018-07-02T22:41:03.915Z,71.30
2018-07-02T22:43:33.542Z,71.40
2018-07-02T22:46:03.341Z,71.50
2018-07-02T22:48:31.874Z,71.40
2018-07-02T22:51:00.587Z,72.50
2018-07-02T22:56:13.609Z,72.90
2018-07-02T22:58:42.339Z,73.60
2018-07-02T23:01:24.149Z,74.60
2018-07-02T23:03:55.920Z,75.30
2018-07-02T23:06:29.889Z,75.90
2018-07-02T23:09:01.606Z,75.70
2018-07-02T23:11:37.727Z,76.00
2018-07-02T23:14:07.329Z,75.80
2018-07-02T23:16:41.825Z,76.30
2018-07-02T23:21:52.178Z,77.10
2018-07-02T23:24:20.799Z,77.50
2018-07-02T23:26:49.417Z,78.20
2018-07-02T23:29:20.011Z,78.60
2018-07-02T23:32:03.079Z,79.20
2018-07-02T23:34:36.655Z,80.70
2018-07-02T23:37:19.156Z,81.00
2018-07-02T23:39:47.587Z,81.80
2018-07-02T23:42:21.837Z,82.80
2018-07-02T23:44:53.873Z,83.40
2018-07-02T23:47:22.599Z,84.40
2018-07-02T23:50:00.813Z,85.30
2018-07-02T23:52:34.441Z,86.20
2018-07-02T23:55:04.140Z,87.50
2018-07-02T23:57:33.629Z,88.60
